Time;durP1;ratioP1;P1;durP2;ratioP2;P2;SDS_P1;SDS_P2;PMS_P1;PMS_P2;Temp;Humidity;BMP_temperature;BMP_pressure;BME280_temperature;BME280_humidity;BME280_pressure;Samples;Min_cycle;Max_cycle;Signal;HPM_P1;HPM_P2
2022/04/17 00:02:17;;;;;;;;;2.75;2.50;;;;;16.21;32.89;102098.03;5000854;28;45250;-57
2022/04/17 00:04:42;;;;;;;;;5.25;2.75;;;;;16.17;33.06;102098.97;4999682;28;45254;-57
2022/04/17 00:07:07;;;;;;;;;2.75;2.75;;;;;16.14;33.06;102089.31;5001435;28;45160;-57
2022/04/17 00:09:33;;;;;;;;;1.75;1.75;;;;;16.11;33.33;102097.28;5000722;28;45250;-57
2022/04/17 00:12:01;;;;;;;;;2.75;2.75;;;;;16.04;33.29;102090.34;5000871;28;45186;-57
2022/04/17 00:14:26;;;;;;;;;4.00;3.25;;;;;16.03;33.35;102091.25;5001002;28;45407;-56
2022/04/17 00:16:54;;;;;;;;;3.00;3.00;;;;;15.95;33.04;102087.81;5001130;28;45250;-56
2022/04/17 00:19:19;;;;;;;;;2.00;2.00;;;;;15.95;33.13;102082.53;4999481;28;48193;-57
2022/04/17 00:21:45;;;;;;;;;4.00;3.00;;;;;15.91;32.98;102085.22;5001012;28;45444;-57
2022/04/17 00:24:10;;;;;;;;;2.25;2.25;;;;;15.89;33.00;102089.66;5000800;28;45635;-55
2022/04/17 00:26:35;;;;;;;;;3.00;3.00;;;;;15.85;33.52;102081.81;4999380;28;45457;-57
2022/04/17 00:29:01;;;;;;;;;3.50;3.50;;;;;15.82;33.26;102082.69;5000665;28;45914;-57
2022/04/17 00:31:26;;;;;;;;;3.75;2.00;;;;;15.79;33.50;102079.22;5000844;28;45296;-56
2022/04/17 00:33:51;;;;;;;;;1.25;1.25;;;;;15.75;33.54;102081.03;4999488;28;45457;-56
2022/04/17 00:36:17;;;;;;;;;3.00;3.00;;;;;15.70;33.59;102074.94;5000734;28;45225;-57
2022/04/17 00:38:42;;;;;;;;;1.00;1.00;;;;;15.64;33.18;102067.94;5000613;28;45194;-57
2022/04/17 00:41:07;;;;;;;;;2.75;2.75;;;;;15.64;33.14;102075.88;4999322;28;45902;-56
2022/04/17 00:43:43;;;;;;;;;4.00;3.00;;;;;15.61;33.58;102073.28;5000420;28;45576;-55
2022/04/17 00:46:09;;;;;;;;;3.00;2.25;;;;;15.58;33.58;102074.19;5000755;28;45240;-56
2022/04/17 00:48:34;;;;;;;;;3.00;3.00;;;;;15.52;33.24;102063.69;5000104;28;47208;-57
2022/04/17 00:51:00;;;;;;;;;2.50;2.00;;;;;15.51;33.41;102067.22;4999297;28;45417;-55
2022/04/17 00:53:27;;;;;;;;;1.50;1.50;;;;;15.48;33.26;102064.59;4999304;28;45262;-56
2022/04/17 00:55:54;;;;;;;;;2.00;2.00;;;;;15.43;33.62;102063.78;5000386;28;45519;-56
2022/04/17 00:58:20;;;;;;;;;2.00;2.00;;;;;15.42;33.71;102062.03;4999964;28;45357;-56
2022/04/17 01:00:46;;;;;;;;;4.00;2.50;;;;;15.37;33.50;102059.47;5000387;28;45277;-56
2022/04/17 01:03:12;;;;;;;;;2.00;2.00;;;;;15.32;33.68;102056.00;4999081;28;45237;-56
2022/04/17 01:05:46;;;;;;;;;2.25;2.00;;;;;15.32;33.81;102057.75;5000304;28;46796;-55
2022/04/17 01:08:13;;;;;;;;;1.75;1.75;;;;;15.28;33.90;102059.56;4999968;28;46235;-54
2022/04/17 01:10:39;;;;;;;;;19.75;16.00;;;;;15.24;33.70;102049.94;5000129;28;45289;-56
2022/04/17 01:13:08;;;;;;;;;1.25;0.75;;;;;15.21;33.50;102057.91;4999279;28;45366;-56
2022/04/17 01:15:34;;;;;;;;;2.50;1.75;;;;;15.17;33.54;102056.19;4999985;28;45309;-55
2022/04/17 01:18:00;;;;;;;;;3.00;3.00;;;;;15.14;34.01;102051.81;4999855;28;46169;-56
2022/04/17 01:20:25;;;;;;;;;1.50;1.50;;;;;15.10;34.15;102056.25;4996657;28;45423;-56
2022/04/17 01:26:55;;;;;;;;;2.00;2.00;;;;;15.07;33.45;102050.16;5000183;28;45556;-56
2022/04/17 01:28:21;;;;;;;;;3.00;2.00;;;;;14.98;33.71;102040.56;4999662;28;45785;-56
2022/04/17 01:30:52;;;;;;;;;5.25;3.25;;;;;14.95;34.05;102041.47;4998354;28;45273;-56
2022/04/17 01:33:18;;;;;;;;;4.00;2.25;;;;;14.93;34.03;102035.31;5000207;28;45422;-55
2022/04/17 01:35:43;;;;;;;;;2.75;2.75;;;;;14.90;33.64;102034.47;4999838;28;45317;-56
2022/04/17 01:38:08;;;;;;;;;1.75;1.75;;;;;14.87;33.70;102037.16;4999931;28;46293;-55
2022/04/17 01:40:33;;;;;;;;;2.25;2.25;;;;;14.83;33.88;102028.38;4999712;28;45450;-56
2022/04/17 01:42:59;;;;;;;;;1.75;1.75;;;;;14.79;33.91;102030.16;4999894;28;45483;-55
2022/04/17 01:45:24;;;;;;;;;7.75;4.00;;;;;14.76;34.09;102030.19;4999743;28;45472;-55
2022/04/17 01:47:49;;;;;;;;;3.00;3.00;;;;;14.61;34.28;102017.09;4999711;28;45961;-56
2022/04/17 01:50:15;;;;;;;;;3.00;3.00;;;;;14.71;34.16;102039.09;4999715;28;45369;-56
2022/04/17 01:52:40;;;;;;;;;3.75;2.75;;;;;14.68;34.26;102028.53;5000038;28;45282;-56
2022/04/17 01:55:06;;;;;;;;;3.00;2.25;;;;;14.62;33.95;102022.38;4998176;28;45383;-56
2022/04/17 01:57:31;;;;;;;;;1.50;1.50;;;;;14.62;33.85;102029.44;4999503;28;46117;-56
2022/04/17 01:59:56;;;;;;;;;3.00;2.00;;;;;14.59;33.82;102032.09;4999713;28;45142;-55
2022/04/17 02:02:22;;;;;;;;;3.75;3.00;;;;;14.53;34.23;102019.84;4999961;28;45377;-55
2022/04/17 02:04:47;;;;;;;;;3.00;2.50;;;;;14.45;34.10;102013.72;4998026;28;45491;-56
2022/04/17 02:07:14;;;;;;;;;2.00;2.00;;;;;14.49;34.43;102026.06;4999636;28;45952;-55
2022/04/17 02:09:39;;;;;;;;;3.75;3.00;;;;;14.40;34.30;102020.84;4999178;28;45341;-55
2022/04/17 02:12:05;;;;;;;;;4.00;4.00;;;;;14.43;34.38;102026.13;4999432;28;45234;-56
2022/04/17 02:14:30;;;;;;;;;1.75;1.75;;;;;14.41;34.12;102030.53;4999363;28;45528;-56
2022/04/17 02:16:57;;;;;;;;;2.50;2.00;;;;;14.38;34.22;102027.94;4999424;28;45177;-55
2022/04/17 02:19:22;;;;;;;;;4.25;3.00;;;;;14.34;34.30;102027.09;4999238;28;45446;-56
2022/04/17 02:21:47;;;;;;;;;3.00;3.00;;;;;14.30;34.18;102026.22;4999555;28;45293;-55
2022/04/17 02:24:13;;;;;;;;;2.00;2.00;;;;;14.27;34.29;102020.09;4999255;28;45547;-55
2022/04/17 02:26:38;;;;;;;;;3.00;3.00;;;;;14.23;34.22;102019.22;5002347;28;47177;-56
2022/04/17 02:29:04;;;;;;;;;2.00;2.00;;;;;14.19;34.34;102019.25;5002526;28;45316;-56
2022/04/17 02:31:29;;;;;;;;;3.25;2.50;;;;;14.19;34.50;102017.53;5003057;28;45306;-55
2022/04/17 02:33:55;;;;;;;;;0.50;0.50;;;;;14.09;34.52;102006.16;5002507;28;45253;-56
2022/04/17 02:36:20;;;;;;;;;1.75;1.75;;;;;14.11;34.32;102012.31;5002610;28;46125;-55
2022/04/17 02:38:46;;;;;;;;;2.00;2.00;;;;;14.11;34.03;102020.22;5002728;28;45333;-55
2022/04/17 02:41:12;;;;;;;;;2.50;2.50;;;;;14.09;34.52;102018.50;5002604;28;45290;-55
2022/04/17 02:43:37;;;;;;;;;3.00;3.00;;;;;14.06;34.50;102022.03;5000971;28;45571;-55
2022/04/17 02:46:03;;;;;;;;;3.75;2.25;;;;;14.03;34.58;102005.34;5001125;28;47172;-54
2022/04/17 02:48:28;;;;;;;;;2.00;2.00;;;;;13.99;34.48;102001.84;5002242;28;45250;-56
2022/04/17 02:50:55;;;;;;;;;2.50;2.50;;;;;13.97;34.56;102006.25;5002572;28;45259;-55
2022/04/17 02:53:21;;;;;;;;;2.75;2.75;;;;;13.93;34.49;102005.38;5002329;28;45595;-55
2022/04/17 02:55:47;;;;;;;;;1.50;1.50;;;;;13.86;34.12;101990.50;5000740;28;46482;-56
2022/04/17 02:58:12;;;;;;;;;2.75;2.75;;;;;13.84;34.48;102000.19;5001815;28;45324;-54
2022/04/17 03:06:10;;;;;;;;;3.50;2.50;;;;;13.75;34.22;101987.94;5000782;28;45700;-56
2022/04/17 03:08:38;;;;;;;;;1.00;1.00;;;;;13.73;34.45;101989.69;5002012;28;45267;-57
2022/04/17 03:11:04;;;;;;;;;3.00;2.75;;;;;13.70;34.13;101988.84;5001940;28;45246;-56
2022/04/17 03:13:29;;;;;;;;;4.00;2.25;;;;;13.65;34.62;101978.31;5001787;28;45461;-57
2022/04/17 03:15:55;;;;;;;;;2.75;2.00;;;;;13.62;34.32;101979.22;5001900;28;46157;-55
2022/04/17 03:18:20;;;;;;;;;2.00;2.00;;;;;13.59;34.57;101979.22;5002186;28;45202;-56
2022/04/17 03:20:46;;;;;;;;;2.00;2.00;;;;;13.57;34.19;101975.75;4998212;28;45246;-57
2022/04/17 03:23:12;;;;;;;;;2.50;2.50;;;;;13.54;34.49;101972.25;5002133;28;45407;-57
2022/04/17 03:25:39;;;;;;;;;2.50;2.50;;;;;13.49;34.43;101970.47;5000158;28;47859;-57
2022/04/17 03:28:06;;;;;;;;;2.25;2.25;;;;;13.48;34.44;101975.78;5001439;28;45167;-56
2022/04/17 03:30:32;;;;;;;;;3.50;2.75;;;;;13.41;34.51;101963.50;5001574;28;45309;-57
2022/04/17 03:32:59;;;;;;;;;2.75;2.25;;;;;13.42;34.56;101975.81;5001900;28;45254;-55
2022/04/17 03:35:25;;;;;;;;;1.50;1.50;;;;;13.38;34.32;101966.19;5000431;28;46275;-56
2022/04/17 03:37:51;;;;;;;;;2.25;2.25;;;;;13.36;34.21;101967.91;5000837;28;45243;-56
2022/04/17 03:40:16;;;;;;;;;2.75;1.50;;;;;13.22;34.50;101960.97;5001544;28;45297;-56
2022/04/17 03:42:42;;;;;;;;;3.00;3.00;;;;;13.28;34.45;101965.31;5000125;28;45456;-56
2022/04/17 03:45:17;;;;;;;;;1.50;1.50;;;;;13.26;34.60;101967.97;5001196;28;46280;-56
2022/04/17 03:47:43;;;;;;;;;2.00;2.00;;;;;13.23;34.47;101970.66;5001721;28;45356;-56
2022/04/17 03:50:10;;;;;;;;;4.00;4.00;;;;;13.14;34.37;101954.84;5001556;28;45330;-56
2022/04/17 03:52:47;;;;;;;;;2.00;2.00;;;;;13.17;34.41;101968.03;5000037;28;45319;-56
2022/04/17 03:55:13;;;;;;;;;0.50;0.50;;;;;13.13;34.46;101971.56;4999650;28;47369;-56
2022/04/17 03:57:39;;;;;;;;;2.75;2.75;;;;;13.12;34.23;101967.19;5001195;28;45262;-56
2022/04/17 04:00:08;;;;;;;;;4.00;2.50;;;;;13.09;34.38;101970.69;5001337;28;45248;-57
2022/04/17 04:02:33;;;;;;;;;2.50;2.50;;;;;13.06;34.46;101967.22;4999937;28;45346;-57
2022/04/17 04:04:59;;;;;;;;;5.00;3.50;;;;;13.04;34.37;101967.19;5000783;28;45400;-56
2022/04/17 04:07:24;;;;;;;;;4.25;3.50;;;;;13.00;34.55;101963.72;5001299;28;45277;-62
2022/04/17 04:09:51;;;;;;;;;3.00;3.00;;;;;12.95;34.32;101957.56;5001098;28;45385;-61
2022/04/17 04:12:17;;;;;;;;;2.25;2.25;;;;;12.95;34.35;101960.19;5000974;28;45359;-60
2022/04/17 04:14:43;;;;;;;;;5.75;5.00;;;;;12.91;34.34;101961.09;5000749;28;46149;-59
2022/04/17 04:17:09;;;;;;;;;4.00;4.00;;;;;12.89;34.35;101954.09;5001054;28;45228;-60
2022/04/17 04:19:34;;;;;;;;;4.25;4.25;;;;;12.87;34.70;101962.00;4995449;28;45327;-61
2022/04/17 04:22:00;;;;;;;;;3.75;3.00;;;;;12.83;34.58;101961.16;5000887;28;45231;-62
2022/04/17 04:24:26;;;;;;;;;4.75;3.75;;;;;12.82;34.51;101961.16;5000666;28;46194;-61
2022/04/17 04:29:37;;;;;;;;;2.00;2.00;;;;;12.75;34.71;101954.16;5000351;28;45258;-62
2022/04/17 04:32:04;;;;;;;;;4.50;4.25;;;;;12.70;34.66;101942.75;4998974;28;45404;-66
2022/04/17 04:34:29;;;;;;;;;3.00;3.00;;;;;12.70;34.49;101953.28;5000854;28;45340;-61
2022/04/17 04:36:55;;;;;;;;;5.75;5.00;;;;;12.67;34.89;101960.31;5000573;28;45329;-62
2022/04/17 04:39:20;;;;;;;;;38.75;33.75;;;;;12.62;34.83;101946.28;4999279;28;45306;-61
2022/04/17 04:41:46;;;;;;;;;15.25;15.00;;;;;12.50;34.76;101928.75;5000227;28;45336;-61
2022/04/17 04:44:12;;;;;;;;;5.50;4.25;;;;;12.57;34.84;101948.06;5000658;28;46075;-61
2022/04/17 04:46:40;;;;;;;;;5.75;4.25;;;;;12.56;34.87;101946.28;5000428;28;45283;-61
2022/04/17 04:51:50;;;;;;;;;3.50;3.00;;;;;12.48;34.78;101948.97;5000303;28;45226;-61
2022/04/17 04:54:16;;;;;;;;;6.00;3.75;;;;;12.50;34.93;101951.59;5000248;28;45413;-61
2022/04/17 04:56:41;;;;;;;;;7.00;4.25;;;;;12.47;34.98;101954.25;5000031;28;45333;-61
2022/04/17 04:59:07;;;;;;;;;2.25;2.25;;;;;12.45;35.01;101953.34;5000638;28;45331;-61
2022/04/17 05:01:32;;;;;;;;;3.00;3.00;;;;;12.41;35.07;101954.25;5000409;28;45433;-61
2022/04/17 05:03:57;;;;;;;;;4.00;4.00;;;;;12.35;35.06;101948.13;5000439;28;45421;-61
2022/04/17 05:06:23;;;;;;;;;4.75;4.75;;;;;12.38;35.11;101959.53;5000071;28;45315;-61
2022/04/17 05:08:48;;;;;;;;;2.00;2.00;;;;;12.36;34.88;101956.91;5000448;28;45401;-61
2022/04/17 05:11:14;;;;;;;;;3.50;3.50;;;;;12.30;35.38;101955.16;4999792;28;45269;-61
2022/04/17 05:13:40;;;;;;;;;9.00;8.50;;;;;12.31;35.06;101964.84;5000490;28;45298;-61
2022/04/17 05:16:05;;;;;;;;;3.00;3.00;;;;;12.29;35.14;101961.31;5000011;28;45393;-61
2022/04/17 05:18:31;;;;;;;;;4.00;4.00;;;;;12.27;35.25;101964.84;5000507;28;45368;-61
2022/04/17 05:20:57;;;;;;;;;2.00;2.00;;;;;12.16;35.40;101952.56;5000004;28;45237;-61
2022/04/17 05:23:26;;;;;;;;;3.75;3.00;;;;;12.23;35.18;101969.22;5000194;28;46119;-61
2022/04/17 05:25:56;;;;;;;;;5.00;4.00;;;;;12.18;35.22;101968.38;4999942;28;45405;-61
2022/04/17 05:28:22;;;;;;;;;4.50;4.50;;;;;12.18;35.30;101966.59;4998448;28;45450;-61
2022/04/17 05:30:47;;;;;;;;;3.75;3.75;;;;;12.13;35.42;101956.94;4999599;28;45496;-61
2022/04/17 05:33:13;;;;;;;;;4.00;4.00;;;;;12.13;35.43;101975.41;4999839;28;45953;-61
2022/04/17 05:35:39;;;;;;;;;2.75;2.75;;;;;12.09;35.43;101971.88;4999791;28;45296;-61
2022/04/17 05:38:05;;;;;;;;;3.00;2.75;;;;;12.11;35.46;101977.13;5000256;28;45175;-61
2022/04/17 05:40:36;;;;;;;;;3.75;3.75;;;;;12.10;35.64;101983.28;4998343;28;45275;-61
2022/04/17 05:43:02;;;;;;;;;4.00;4.00;;;;;12.08;35.40;101979.78;4998170;28;47050;-62
2022/04/17 05:45:28;;;;;;;;;4.00;4.00;;;;;12.04;35.46;101973.66;4998215;28;45255;-61
2022/04/17 05:47:53;;;;;;;;;3.75;3.75;;;;;12.03;35.44;101978.00;4999792;28;45223;-61
2022/04/17 05:50:19;;;;;;;;;3.25;3.25;;;;;12.03;35.40;101979.78;4999562;28;45313;-61
2022/04/17 05:52:45;;;;;;;;;5.25;3.50;;;;;12.02;35.50;101975.41;4999793;28;46104;-61
2022/04/17 05:55:11;;;;;;;;;4.00;4.00;;;;;12.00;35.51;101978.03;4999367;28;45405;-61
2022/04/17 05:57:36;;;;;;;;;2.50;2.50;;;;;12.00;35.62;101978.03;4999672;28;45253;-61
2022/04/17 06:00:08;;;;;;;;;1.75;1.75;;;;;11.98;35.56;101976.28;5000414;28;45496;-61
2022/04/17 06:02:36;;;;;;;;;3.00;2.25;;;;;11.97;35.53;101971.88;5001804;28;48430;-61
2022/04/17 06:05:03;;;;;;;;;3.75;2.75;;;;;11.99;35.40;101976.28;5002517;28;45405;-62
2022/04/17 06:07:29;;;;;;;;;4.00;3.00;;;;;11.97;35.39;101972.75;5001742;28;45367;-61
2022/04/17 06:09:55;;;;;;;;;3.00;3.00;;;;;11.99;35.58;101978.03;5002456;28;45366;-61
2022/04/17 06:12:20;;;;;;;;;3.00;3.00;;;;;11.99;35.42;101976.28;5002461;28;46451;-61
2022/04/17 06:14:46;;;;;;;;;5.00;5.00;;;;;11.99;35.45;101978.03;5002754;28;45330;-64
2022/04/17 06:17:11;;;;;;;;;3.00;3.00;;;;;11.99;35.47;101983.31;5002969;28;45305;-61
2022/04/17 06:19:37;;;;;;;;;4.00;4.00;;;;;11.97;35.13;101990.31;4999256;28;45345;-60
2022/04/17 06:22:03;;;;;;;;;4.25;4.00;;;;;11.96;35.30;101981.56;5002729;28;46260;-61
2022/04/17 06:24:28;;;;;;;;;3.25;3.25;;;;;11.99;35.43;101980.69;5002388;28;45267;-60
2022/04/17 06:26:54;;;;;;;;;6.00;4.50;;;;;11.99;35.35;101981.53;5002490;28;45487;-61
2022/04/17 06:29:19;;;;;;;;;5.00;4.50;;;;;12.01;35.54;101985.06;5002319;28;45552;-61
2022/04/17 06:31:45;;;;;;;;;2.00;2.00;;;;;12.00;35.55;101979.81;5002590;28;45285;-61
2022/04/17 06:34:15;;;;;;;;;2.75;2.75;;;;;12.01;35.45;101979.78;5001059;28;45563;-61
2022/04/17 06:36:41;;;;;;;;;3.25;3.00;;;;;12.00;35.41;101977.16;4998121;28;45290;-61
2022/04/17 06:39:06;;;;;;;;;3.00;3.00;;;;;12.02;35.30;101980.66;4983260;28;45300;-61
2022/04/17 06:41:31;;;;;;;;;2.00;2.00;;;;;12.01;35.35;101978.91;5002362;28;45361;-61
2022/04/17 06:43:57;;;;;;;;;5.00;5.00;;;;;12.02;35.35;101981.56;5001044;28;45282;-61
2022/04/17 06:46:22;;;;;;;;;4.75;4.75;;;;;12.03;35.21;101977.16;5002413;28;45230;-61
2022/04/17 06:48:48;;;;;;;;;4.25;3.75;;;;;12.03;35.37;101978.00;5002151;28;45201;-61
2022/04/17 06:51:13;;;;;;;;;4.50;3.75;;;;;12.04;35.40;101973.66;5002275;28;46136;-61
2022/04/17 06:53:39;;;;;;;;;2.00;2.00;;;;;12.07;35.23;101983.31;5002246;28;45303;-61
2022/04/17 06:56:06;;;;;;;;;3.00;3.00;;;;;11.96;35.18;101960.47;5001943;28;45310;-62
2022/04/17 06:58:31;;;;;;;;;2.50;2.25;;;;;12.10;35.24;101984.19;5002249;28;45259;-62
2022/04/17 07:00:56;;;;;;;;;3.00;3.00;;;;;12.12;35.14;101977.13;5000725;28;46142;-62
2022/04/17 07:03:22;;;;;;;;;3.75;3.75;;;;;12.13;35.21;101972.75;5002043;28;45298;-61
2022/04/17 07:05:47;;;;;;;;;3.75;3.50;;;;;12.16;35.41;101971.00;5002163;28;45348;-62
2022/04/17 07:08:12;;;;;;;;;4.00;3.00;;;;;12.09;35.36;101948.16;5001872;28;45288;-61
2022/04/17 07:10:39;;;;;;;;;3.75;2.00;;;;;12.17;35.02;101962.19;5001660;28;45357;-62
2022/04/17 07:13:07;;;;;;;;;4.00;3.00;;;;;12.25;35.46;101966.59;5000757;28;45436;-62
2022/04/17 07:15:32;;;;;;;;;4.00;3.50;;;;;12.26;35.16;101948.13;5002082;28;45301;-62
2022/04/17 07:17:58;;;;;;;;;4.75;3.50;;;;;12.30;35.21;101951.63;5001635;28;45262;-62
2022/04/17 07:20:26;;;;;;;;;3.50;3.25;;;;;12.31;35.17;101949.03;4998341;28;45420;-62
2022/04/17 07:22:51;;;;;;;;;4.00;4.00;;;;;12.35;34.96;101947.22;5001785;28;45574;-62
2022/04/17 07:25:17;;;;;;;;;4.75;4.00;;;;;12.40;35.11;101949.84;5000478;28;45377;-62
2022/04/17 07:27:44;;;;;;;;;4.25;4.25;;;;;12.42;35.16;101941.06;5001326;28;45321;-62
2022/04/17 07:30:13;;;;;;;;;3.25;3.25;;;;;12.45;34.72;101941.06;5001715;28;46239;-62
2022/04/17 07:32:41;;;;;;;;;3.75;3.75;;;;;12.49;35.03;101928.72;5001358;28;45242;-62
2022/04/17 07:35:07;;;;;;;;;3.00;3.00;;;;;12.52;34.81;101931.38;5001709;28;45360;-61
2022/04/17 07:37:35;;;;;;;;;3.00;3.00;;;;;12.56;34.99;101933.09;5001287;28;45980;-62
2022/04/17 07:40:01;;;;;;;;;4.00;4.00;;;;;12.60;35.16;101926.06;5001300;28;46391;-62
2022/04/17 07:42:28;;;;;;;;;4.50;3.00;;;;;12.64;35.41;101933.97;5001166;28;45304;-62
2022/04/17 07:44:53;;;;;;;;;4.00;4.00;;;;;12.65;35.11;101927.81;5001430;28;45187;-62
2022/04/17 07:47:19;;;;;;;;;4.00;4.00;;;;;12.74;34.95;101933.94;5001232;28;45167;-61
2022/04/17 07:49:45;;;;;;;;;3.00;2.25;;;;;12.79;35.05;101937.41;5001291;28;46126;-61
2022/04/17 07:52:11;;;;;;;;;3.75;3.75;;;;;12.83;35.06;101928.63;5001188;28;45355;-61
2022/04/17 07:54:36;;;;;;;;;6.00;3.50;;;;;12.78;34.89;101907.53;5001245;28;45343;-60
2022/04/17 07:57:01;;;;;;;;;3.75;3.75;;;;;12.89;34.79;101911.88;4999664;28;45709;-61
2022/04/17 07:59:27;;;;;;;;;3.50;3.50;;;;;12.93;34.85;101909.22;4999865;28;46231;-60
2022/04/17 08:02:01;;;;;;;;;5.00;3.50;;;;;13.01;34.56;101917.09;5001032;28;45407;-61
2022/04/17 08:04:27;;;;;;;;;5.00;5.00;;;;;13.07;34.67;101921.44;5000767;28;45284;-61
2022/04/17 08:06:53;;;;;;;;;5.00;5.00;;;;;13.08;34.76;101910.00;5001297;28;45420;-62
2022/04/17 08:09:18;;;;;;;;;4.75;4.00;;;;;13.17;34.85;101917.88;5000628;28;45414;-61
2022/04/17 08:11:51;;;;;;;;;5.25;4.50;;;;;13.21;34.60;101916.97;5000944;28;45316;-61
2022/04/17 08:14:16;;;;;;;;;3.00;3.00;;;;;13.27;34.39;101911.66;5000895;28;45452;-61
2022/04/17 08:16:42;;;;;;;;;2.25;2.25;;;;;13.32;34.64;101917.78;4999638;28;45383;-62
2022/04/17 08:19:07;;;;;;;;;3.75;3.00;;;;;13.29;34.72;101894.03;4997140;28;46199;-62
2022/04/17 08:21:32;;;;;;;;;4.00;4.00;;;;;13.41;34.63;101894.84;4999558;28;45327;-61
2022/04/17 08:24:00;;;;;;;;;3.25;3.25;;;;;13.48;34.28;101901.84;5000578;28;45414;-61
2022/04/17 08:26:25;;;;;;;;;5.25;3.00;;;;;13.54;34.56;101896.53;5000534;28;45325;-61
2022/04/17 08:28:50;;;;;;;;;30.25;27.25;;;;;13.60;34.31;101901.75;5000281;28;45465;-61
2022/04/17 08:31:16;;;;;;;;;8.00;8.00;;;;;13.65;34.60;101889.38;4999430;28;45304;-62
2022/04/17 08:33:41;;;;;;;;;11.50;10.75;;;;;13.72;34.45;101886.69;5000793;28;45238;-61
2022/04/17 08:36:08;;;;;;;;;6.25;6.00;;;;;13.78;34.19;101881.34;5000702;28;45362;-61
2022/04/17 08:38:34;;;;;;;;;3.75;3.75;;;;;13.85;34.14;101882.16;5000455;28;46369;-61
2022/04/17 08:41:03;;;;;;;;;4.75;4.00;;;;;13.90;34.46;101881.25;5000191;28;45380;-61
2022/04/17 08:43:30;;;;;;;;;5.25;5.25;;;;;13.97;33.89;101884.69;4999228;28;45353;-62
2022/04/17 08:45:56;;;;;;;;;3.50;3.50;;;;;14.03;34.21;101881.13;5015703;28;46029;-62
2022/04/17 08:48:22;;;;;;;;;7.50;7.50;;;;;14.10;34.13;101886.31;5000249;28;46041;-62
2022/04/17 08:50:52;;;;;;;;;5.50;4.25;;;;;14.18;33.85;101888.00;5000506;28;45242;-62
2022/04/17 08:53:17;;;;;;;;;6.00;6.00;;;;;14.24;33.77;101886.16;5000245;28;45504;-61
2022/04/17 08:55:44;;;;;;;;;3.75;3.75;;;;;14.33;34.03;101881.69;5000149;28;45380;-61
2022/04/17 08:58:11;;;;;;;;;9.50;7.25;;;;;14.40;33.81;101885.97;4999847;28;47106;-62
2022/04/17 09:00:36;;;;;;;;;7.75;5.75;;;;;14.45;33.89;101881.50;4998857;28;45406;-61
2022/04/17 09:03:01;;;;;;;;;3.50;2.00;;;;;14.54;33.54;101875.22;5000233;28;45927;-62
2022/04/17 09:05:27;;;;;;;;;1.00;1.00;;;;;14.57;33.33;101870.78;5000140;28;45231;-62
2022/04/17 09:07:56;;;;;;;;;7.25;6.00;;;;;14.69;33.85;101874.19;4998815;28;47234;-62
2022/04/17 09:10:33;;;;;;;;;8.25;7.00;;;;;14.78;33.48;101880.22;5000068;28;45443;-62
2022/04/17 09:13:07;;;;;;;;;3.00;3.00;;;;;14.86;33.46;101866.91;4999794;28;45349;-62
2022/04/17 09:15:37;;;;;;;;;4.75;3.75;;;;;14.94;33.40;101870.31;5000000;28;45423;-62
2022/04/17 09:18:07;;;;;;;;;3.00;3.00;;;;;15.00;33.54;101868.47;4999932;28;47233;-62
2022/04/17 09:20:32;;;;;;;;;3.75;3.00;;;;;15.12;33.32;101863.00;4996633;28;45298;-62
2022/04/17 09:23:00;;;;;;;;;3.50;3.50;;;;;15.21;33.50;101860.19;4987053;28;45440;-61
2022/04/17 09:25:26;;;;;;;;;6.50;5.50;;;;;15.31;33.44;101860.94;4999772;28;45404;-62
2022/04/17 09:27:58;;;;;;;;;3.00;2.25;;;;;15.40;32.91;101852.81;4999700;28;46161;-61
2022/04/17 09:30:35;;;;;;;;;4.00;4.00;;;;;15.51;32.94;101859.72;4999495;28;45429;-62
2022/04/17 09:33:05;;;;;;;;;2.00;2.00;;;;;15.60;33.06;101848.97;5000020;28;45337;-62
2022/04/17 09:35:31;;;;;;;;;2.00;2.00;;;;;15.72;32.76;101848.75;5001560;28;45527;-62
2022/04/17 09:37:59;;;;;;;;;1.00;1.00;;;;;15.84;32.51;101846.81;5003317;28;46209;-61
2022/04/17 09:40:26;;;;;;;;;5.75;3.00;;;;;15.91;32.99;101841.38;5003119;28;45285;-61
2022/04/17 09:43:07;;;;;;;;;10.00;8.25;;;;;16.09;32.70;101842.78;5001865;28;45212;-61
2022/04/17 09:45:33;;;;;;;;;7.25;7.25;;;;;16.20;32.70;101829.31;5003141;28;45274;-61
2022/04/17 09:47:58;;;;;;;;;4.00;4.00;;;;;16.36;32.40;101842.25;5003289;28;45406;-62
2022/04/17 09:50:32;;;;;;;;;3.00;3.00;;;;;16.48;32.51;101831.38;5001702;28;45429;-62
2022/04/17 09:52:59;;;;;;;;;1.75;1.75;;;;;16.60;32.17;101827.56;5003355;28;45347;-62
2022/04/17 09:55:28;;;;;;;;;4.25;3.50;;;;;16.78;32.34;101825.41;5001471;28;45414;-63
2022/04/17 09:57:58;;;;;;;;;2.25;2.25;;;;;16.92;32.25;101827.78;5002663;28;46489;-61
2022/04/17 10:00:24;;;;;;;;;2.75;2.00;;;;;17.01;31.88;101812.50;5002843;28;45341;-61
2022/04/17 10:02:49;;;;;;;;;3.00;3.00;;;;;17.18;32.00;101817.41;5003075;28;45458;-61
2022/04/17 10:05:17;;;;;;;;;2.50;2.00;;;;;17.32;32.06;101810.88;5002577;28;45387;-61
2022/04/17 10:07:45;;;;;;;;;2.75;2.75;;;;;17.50;31.87;101809.53;5002760;28;45243;-61
2022/04/17 10:10:12;;;;;;;;;1.00;1.00;;;;;17.66;31.68;101797.59;5002809;28;45855;-63
2022/04/17 10:12:43;;;;;;;;;8.00;6.25;;;;;17.83;31.59;101802.41;5001188;28;45395;-61
2022/04/17 10:15:11;;;;;;;;;3.25;2.00;;;;;18.01;31.69;101801.09;5002922;28;45226;-62
2022/04/17 10:17:44;;;;;;;;;2.00;2.00;;;;;18.18;31.51;101794.41;5002684;28;45409;-61
2022/04/17 10:20:12;;;;;;;;;3.00;3.00;;;;;18.33;31.44;101785.94;4998641;28;45273;-61
2022/04/17 10:22:39;;;;;;;;;5.75;5.75;;;;;18.54;31.10;101788.00;5002769;28;45376;-62
2022/04/17 10:25:07;;;;;;;;;3.50;2.25;;;;;18.71;30.77;101790.16;5002700;28;45408;-61
2022/04/17 10:27:46;;;;;;;;;3.50;3.00;;;;;18.90;31.20;101780.66;5002181;28;45880;-61
2022/04/17 10:30:16;;;;;;;;;3.00;3.00;;;;;19.05;30.82;101771.28;5002575;28;45478;-62
2022/04/17 10:33:19;;;;;;;;;5.50;5.00;;;;;19.29;30.49;101776.72;5002630;28;45311;-61
2022/04/17 10:36:03;;;;;;;;;3.50;3.50;;;;;19.48;30.77;101767.16;5002625;28;46302;-61
2022/04/17 10:38:44;;;;;;;;;2.00;2.00;;;;;19.72;30.65;101763.66;5002336;28;45403;-62
2022/04/17 10:41:12;;;;;;;;;3.00;3.00;;;;;19.96;30.17;101759.25;5002269;28;45323;-62
2022/04/17 10:43:47;;;;;;;;;6.75;6.50;;;;;20.21;30.24;101758.31;5001213;28;45483;-60
2022/04/17 10:46:12;;;;;;;;;3.00;2.50;;;;;20.44;30.24;101750.28;5002374;28;45422;-63
2022/04/17 10:48:44;;;;;;;;;6.75;6.00;;;;;20.71;29.53;101749.25;5002087;28;45452;-62
2022/04/17 10:51:15;;;;;;;;;3.00;3.00;;;;;21.02;30.25;101746.19;5002619;28;45242;-62
2022/04/17 10:54:13;;;;;;;;;2.75;2.75;;;;;21.46;29.57;101747.88;5002253;28;45358;-62
2022/04/17 10:56:58;;;;;;;;;3.00;3.00;;;;;21.93;30.07;101735.97;4979766;28;45364;-62
2022/04/17 10:59:33;;;;;;;;;2.00;2.00;;;;;22.43;29.82;101734.56;5000900;28;47072;-62
2022/04/17 11:02:24;;;;;;;;;3.00;3.00;;;;;22.98;29.48;101730.06;5002773;28;45399;-60
2022/04/17 11:04:54;;;;;;;;;2.00;2.00;;;;;23.47;29.71;101721.31;4998850;28;45356;-60
2022/04/17 11:07:27;;;;;;;;;5.00;4.00;;;;;24.01;29.43;101726.47;5001040;28;45458;-60
2022/04/17 11:10:18;;;;;;;;;4.00;3.50;;;;;24.62;29.22;101722.13;5001127;28;46113;-59
2022/04/17 11:12:52;;;;;;;;;1.00;1.00;;;;;25.22;28.78;101719.53;5001394;28;45476;-60
2022/04/17 11:15:17;;;;;;;;;1.75;1.75;;;;;25.77;28.98;101717.97;5001681;28;45346;-61
2022/04/17 11:17:44;;;;;;;;;1.50;1.50;;;;;26.30;28.92;101704.72;5001774;28;45490;-59
2022/04/17 11:20:11;;;;;;;;;1.25;1.00;;;;;26.88;28.36;101705.38;5000532;28;46246;-61
2022/04/17 11:22:38;;;;;;;;;4.50;1.75;;;;;27.53;28.20;101705.44;5001549;28;45388;-60
2022/04/17 11:25:05;;;;;;;;;2.25;2.25;;;;;28.17;28.66;101704.47;5001627;28;45397;-60
2022/04/17 11:27:49;;;;;;;;;2.75;2.75;;;;;28.89;27.79;101697.34;5001394;28;45413;-58
2022/04/17 11:30:14;;;;;;;;;3.00;3.00;;;;;29.51;27.56;101698.84;5001168;28;46140;-60
2022/04/17 11:32:39;;;;;;;;;4.00;4.00;;;;;30.14;27.72;101701.84;5001088;28;45236;-58
2022/04/17 11:35:08;;;;;;;;;4.00;4.00;;;;;30.67;27.20;101675.81;5002098;28;45330;-58
2022/04/17 11:37:34;;;;;;;;;3.00;3.00;;;;;31.34;27.13;101689.13;5001562;28;45337;-60
2022/04/17 11:40:14;;;;;;;;;2.50;2.50;;;;;31.99;26.71;101684.22;5001065;28;46205;-61